Time;durP1;ratioP1;P1;durP2;ratioP2;P2;SDS_P1;SDS_P2;PMS_P1;PMS_P2;Temp;Humidity;BMP_temperature;BMP_pressure;BME280_temperature;BME280_humidity;BME280_pressure;Samples;Min_cycle;Max_cycle;Signal;HPM_P1;HPM_P2
2022/03/08 00:01:15;;;;;;;;;;;;;;;2.39;99.90;100124.13;4982183;28;20293;-82
2022/03/08 00:03:40;;;;;;;;;;;;;;;2.16;97.06;100118.13;4983611;28;19972;-79
2022/03/08 00:06:06;;;;;;;;;;;;;;;1.99;94.39;100115.56;4984227;28;19921;-81
2022/03/08 00:08:31;;;;;;;;;;;;;;;1.84;92.21;100118.22;4984048;28;20262;-79
2022/03/08 00:10:56;;;;;;;;;;;;;;;1.73;90.41;100130.41;4984071;28;19953;-81
2022/03/08 00:13:21;;;;;;;;;;;;;;;1.69;88.54;100121.72;4984168;28;19918;-79
2022/03/08 00:15:47;;;;;;;;;;;;;;;1.57;87.03;100117.38;4980914;28;19924;-80
2022/03/08 00:18:12;;;;;;;;;;;;;;;1.49;85.54;100120.88;4983657;28;19921;-79
2022/03/08 00:20:37;;;;;;;;;;;;;;;1.33;84.58;100115.63;4984056;28;20383;-80
2022/03/08 00:23:03;;;;;;;;;;;;;;;1.31;83.52;100117.38;4983789;28;19922;-79
2022/03/08 00:25:28;;;;;;;;;;;;;;;1.20;82.47;100126.97;4983334;28;19918;-79
2022/03/08 03:22:19;;;;;;;;;;;;;;;4.59;100.00;100037.41;5355181;23;19934;-80
2022/03/08 03:24:44;;;;;;;;;;;;;;;4.60;100.00;100034.78;4994003;28;20276;-81
2022/03/08 03:27:10;;;;;;;;;;;;;;;4.63;100.00;100028.63;4994228;28;20372;-84
2022/03/08 03:29:35;;;;;;;;;;;;;;;4.68;99.90;100026.78;4994476;28;20364;-83
2022/03/08 03:32:01;;;;;;;;;;;;;;;4.64;99.91;100031.22;4992144;28;19990;-81
2022/03/08 03:34:26;;;;;;;;;;;;;;;4.70;99.72;100031.09;4993073;28;19917;-81
2022/03/08 03:36:52;;;;;;;;;;;;;;;4.68;99.27;100024.16;4990739;28;19976;-79
2022/03/08 03:39:17;;;;;;;;;;;;;;;4.72;98.89;100015.34;4994089;28;19983;-84
2022/03/08 03:41:42;;;;;;;;;;;;;;;4.72;98.21;100017.97;4994290;28;19968;-79
2022/03/08 03:44:08;;;;;;;;;;;;;;;4.72;97.88;100016.22;4994011;28;19917;-80
2022/03/08 03:46:33;;;;;;;;;;;;;;;4.76;97.42;100010.94;4993235;28;19959;-80
2022/03/08 03:48:58;;;;;;;;;;;;;;;4.78;96.79;100012.63;4994156;28;20000;-81
2022/03/08 03:51:23;;;;;;;;;;;;;;;4.81;96.52;100007.31;4992291;28;19917;-83
2022/03/08 03:53:49;;;;;;;;;;;;;;;4.83;96.23;99997.66;4992637;28;20265;-81
2022/03/08 03:56:14;;;;;;;;;;;;;;;4.80;95.51;99994.22;4992469;28;19983;-85
2022/03/08 03:58:39;;;;;;;;;;;;;;;3.64;90.85;100001.88;4992417;28;19924;-80
2022/03/08 04:01:04;;;;;;;;;;;;;;;3.14;88.35;100000.63;4993790;28;19918;-81
2022/03/08 04:03:30;;;;;;;;;;;;;;;2.90;87.23;99997.38;4993591;28;19918;-80
2022/03/08 04:05:56;;;;;;;;;;;;;;;2.83;86.48;100000.03;4992460;28;19989;-81
2022/03/08 04:08:21;;;;;;;;;;;;;;;2.65;86.08;99991.44;4993533;28;19925;-81
2022/03/08 04:10:48;;;;;;;;;;;;;;;2.69;88.35;99998.38;4992321;28;20004;-81
2022/03/08 04:13:13;;;;;;;;;;;;;;;2.61;89.16;99992.34;4993325;28;19918;-82
2022/03/08 04:15:38;;;;;;;;;;;;;;;2.53;89.57;99995.00;4993443;28;19917;-82
2022/03/08 04:18:04;;;;;;;;;;;;;;;2.48;89.53;99998.53;4993268;28;19926;-87
2022/03/08 04:20:29;;;;;;;;;;;;;;;2.41;89.44;99996.84;4992143;28;19918;-85
2022/03/08 04:22:55;;;;;;;;;;;;;;;2.29;89.55;99998.66;4990531;28;19922;-83
2022/03/08 04:25:20;;;;;;;;;;;;;;;2.22;89.17;100007.41;4992126;28;19929;-81
2022/03/08 04:27:46;;;;;;;;;;;;;;;2.12;88.89;99998.75;4991143;28;19914;-84
2022/03/08 04:30:11;;;;;;;;;;;;;;;2.11;88.70;100001.38;4993155;28;19929;-82
2022/03/08 04:32:36;;;;;;;;;;;;;;;2.05;88.25;99991.81;4993069;28;19918;-83
2022/03/08 04:35:02;;;;;;;;;;;;;;;1.95;87.94;99992.75;4993067;28;19922;-85
2022/03/08 04:37:27;;;;;;;;;;;;;;;1.94;87.76;99999.69;4991779;28;19922;-81
2022/03/08 04:39:52;;;;;;;;;;;;;;;1.93;87.20;99994.47;4988831;28;19924;-84
2022/03/08 04:42:17;;;;;;;;;;;;;;;1.85;86.76;99994.53;4991675;28;19917;-86
2022/03/08 04:44:43;;;;;;;;;;;;;;;1.81;86.46;99992.78;4992885;28;20278;-85
2022/03/08 04:47:08;;;;;;;;;;;;;;;1.72;85.94;99988.44;4992792;28;19918;-85
2022/03/08 08:57:13;;;;;;;;;;;;;;;2.36;100.00;100039.59;5099999;23;19937;-80
2022/03/08 08:59:39;;;;;;;;;;;;;;;2.42;100.00;100043.91;4971232;28;19926;-81
2022/03/08 09:02:04;;;;;;;;;;;;;;;2.50;100.00;100046.47;4973056;28;19929;-82
2022/03/08 09:04:29;;;;;;;;;;;;;;;2.63;100.00;100036.81;4971049;28;19933;-83
2022/03/08 09:06:54;;;;;;;;;;;;;;;2.65;100.00;100038.56;4970334;28;19929;-83
2022/03/08 09:09:20;;;;;;;;;;;;;;;2.72;100.00;100031.53;4972488;28;19926;-83
2022/03/08 09:11:45;;;;;;;;;;;;;;;2.88;100.00;100027.91;4971097;28;19926;-83
2022/03/08 09:14:10;;;;;;;;;;;;;;;2.92;100.00;100026.16;4972657;28;20431;-82
2022/03/08 09:16:36;;;;;;;;;;;;;;;2.96;100.00;100022.63;4972255;28;19922;-83
2022/03/08 09:19:01;;;;;;;;;;;;;;;3.00;100.00;100016.50;4972756;28;19922;-84
2022/03/08 09:21:27;;;;;;;;;;;;;;;3.04;100.00;100020.78;4971670;28;19958;-85
2022/03/08 09:23:52;;;;;;;;;;;;;;;3.09;100.00;100018.13;4972344;28;19930;-80
2022/03/08 09:26:17;;;;;;;;;;;;;;;3.21;100.00;100014.56;4969693;28;20376;-82
2022/03/08 09:28:43;;;;;;;;;;;;;;;3.24;100.00;100015.41;4970871;28;19926;-84
2022/03/08 09:31:08;;;;;;;;;;;;;;;3.29;100.00;100012.75;4972532;28;19922;-83
2022/03/08 09:33:33;;;;;;;;;;;;;;;3.33;100.00;100003.09;4970935;28;19926;-83
2022/03/08 09:35:59;;;;;;;;;;;;;;;3.35;100.00;100011.78;4971518;28;19929;-80
2022/03/08 09:38:24;;;;;;;;;;;;;;;3.40;100.00;100003.03;4971163;28;19922;-84
2022/03/08 09:40:51;;;;;;;;;;;;;;;3.49;100.00;100009.03;4970779;28;19928;-85
2022/03/08 09:43:16;;;;;;;;;;;;;;;3.54;100.00;99999.38;4972084;28;20321;-83
2022/03/08 09:45:41;;;;;;;;;;;;;;;3.55;100.00;99998.50;4972794;28;19930;-83
2022/03/08 09:48:07;;;;;;;;;;;;;;;3.61;100.00;99998.44;4970270;28;19926;-83
2022/03/08 09:50:32;;;;;;;;;;;;;;;3.64;100.00;99998.41;4975223;28;20324;-82
2022/03/08 09:52:58;;;;;;;;;;;;;;;3.69;100.00;100008.84;4972576;28;19945;-82
2022/03/08 09:55:25;;;;;;;;;;;;;;;3.72;100.00;99991.31;4972987;28;19926;-82
2022/03/08 09:57:51;;;;;;;;;;;;;;;3.74;100.00;99996.53;4974315;28;19928;-84
2022/03/08 10:00:16;;;;;;;;;;;;;;;3.76;100.00;99997.38;4974449;28;20356;-83
2022/03/08 10:02:49;;;;;;;;;;;;;;;3.38;100.00;99998.66;4974082;28;20017;-82
2022/03/08 10:05:15;;;;;;;;;;;;;;;2.67;100.00;100008.00;4990011;28;20392;-81
2022/03/08 10:08:00;;;;;;;;;;;;;;;2.37;98.39;99998.59;4975315;28;19922;-81
2022/03/08 10:10:26;;;;;;;;;;;;;;;2.23;95.64;99998.69;4973327;28;20354;-81
2022/03/08 10:12:57;;;;;;;;;;;;;;;2.09;93.48;99997.88;4976008;28;20009;-83
2022/03/08 10:15:22;;;;;;;;;;;;;;;2.03;91.43;99998.78;4989575;28;19973;-82
2022/03/08 10:17:47;;;;;;;;;;;;;;;1.96;89.96;99997.97;4975011;28;19965;-80
2022/03/08 10:20:26;;;;;;;;;;;;;;;1.85;88.59;99999.75;4976118;28;20420;-83
2022/03/08 10:22:51;;;;;;;;;;;;;;;1.70;87.19;99992.81;4974427;28;20340;-84
2022/03/08 10:25:19;;;;;;;;;;;;;;;1.67;86.36;99984.13;4974151;28;19978;-84
2022/03/08 10:27:57;;;;;;;;;;;;;;;1.64;85.50;99979.78;4974648;28;19925;-84
2022/03/08 10:30:42;;;;;;;;;;;;;;;1.55;84.51;99983.28;4972796;28;19922;-82
2022/03/08 10:33:08;;;;;;;;;;;;;;;1.49;83.72;99974.63;4973101;28;20285;-83
2022/03/08 10:35:38;;;;;;;;;;;;;;;1.43;83.25;99980.72;4974910;28;19922;-84
2022/03/08 10:38:05;;;;;;;;;;;;;;;1.35;82.81;99977.25;4973563;28;19984;-81
2022/03/08 10:40:32;;;;;;;;;;;;;;;1.33;82.81;99974.66;4972876;28;19918;-84
2022/03/08 10:43:14;;;;;;;;;;;;;;;1.23;82.18;99972.94;4973392;28;19922;-82
2022/03/08 10:45:44;;;;;;;;;;;;;;;1.32;82.05;99982.47;4973648;28;19980;-81
2022/03/08 10:48:10;;;;;;;;;;;;;;;1.23;81.90;99970.31;4974676;28;19922;-82
2022/03/08 10:50:36;;;;;;;;;;;;;;;1.18;81.54;99970.34;4973673;28;19929;-84
2022/03/08 10:53:03;;;;;;;;;;;;;;;1.17;81.47;99972.94;4989453;28;19976;-84
2022/03/08 10:55:35;;;;;;;;;;;;;;;1.13;81.45;99979.88;4972175;28;19933;-85
2022/03/08 10:58:03;;;;;;;;;;;;;;;1.07;81.34;99972.09;4973937;28;19976;-81
2022/03/08 11:00:29;;;;;;;;;;;;;;;1.04;81.27;99977.31;4972693;28;20380;-80
2022/03/08 11:02:56;;;;;;;;;;;;;;;1.01;81.24;99978.16;4973736;28;19994;-83
2022/03/08 11:05:25;;;;;;;;;;;;;;;1.04;81.14;99974.69;4973996;28;19918;-81
2022/03/08 11:07:51;;;;;;;;;;;;;;;0.96;81.05;99972.09;4969752;28;20446;-82
2022/03/08 11:10:17;;;;;;;;;;;;;;;0.96;80.95;99973.81;4972985;28;19922;-81
2022/03/08 11:12:43;;;;;;;;;;;;;;;0.95;80.96;99972.97;4973673;28;19922;-81
2022/03/08 11:15:09;;;;;;;;;;;;;;;0.91;80.90;99976.47;4973745;28;19930;-81
2022/03/08 11:17:36;;;;;;;;;;;;;;;0.96;81.06;99984.25;4974171;28;19923;-85
2022/03/08 11:20:03;;;;;;;;;;;;;;;0.90;80.62;99978.16;4974043;28;19930;-80
2022/03/08 11:22:28;;;;;;;;;;;;;;;0.90;80.78;99975.56;4974909;28;20056;-80
2022/03/08 11:24:54;;;;;;;;;;;;;;;0.81;80.78;99975.56;4972895;28;20024;-85
2022/03/08 11:27:21;;;;;;;;;;;;;;;0.85;80.51;99972.09;4971999;28;20091;-83
2022/03/08 11:29:46;;;;;;;;;;;;;;;0.83;80.42;99972.94;4973599;28;19953;-80
2022/03/08 11:32:17;;;;;;;;;;;;;;;0.81;80.44;99975.56;4973410;28;19921;-83
2022/03/08 11:34:57;;;;;;;;;;;;;;;0.81;80.27;99954.69;4973477;28;20368;-84
2022/03/08 11:37:23;;;;;;;;;;;;;;;0.70;80.03;99964.25;4973342;28;19925;-83
2022/03/08 11:40:15;;;;;;;;;;;;;;;0.75;79.99;99953.81;4971671;28;19930;-83
2022/03/08 11:42:44;;;;;;;;;;;;;;;0.71;79.82;99947.75;4973282;28;20056;-81
2022/03/08 11:45:21;;;;;;;;;;;;;;;0.72;79.69;99952.09;4973766;28;19918;-82
2022/03/08 11:47:57;;;;;;;;;;;;;;;0.67;80.02;99946.00;4973617;28;20230;-81
2022/03/08 11:50:24;;;;;;;;;;;;;;;0.67;80.00;99953.81;4972594;28;20009;-81
2022/03/08 11:52:50;;;;;;;;;;;;;;;0.65;80.00;99955.56;4971548;28;19922;-80
2022/03/08 11:55:23;;;;;;;;;;;;;;;0.61;79.75;99957.31;4971316;28;20436;-85
2022/03/08 11:57:49;;;;;;;;;;;;;;;0.58;79.59;99952.09;4972615;28;19926;-81
2022/03/08 12:00:14;;;;;;;;;;;;;;;0.61;79.66;99951.25;4973733;28;19933;-81
2022/03/08 12:02:47;;;;;;;;;;;;;;;0.59;79.30;99937.31;4971267;28;19919;-83
2022/03/08 12:05:31;;;;;;;;;;;;;;;0.59;79.17;99942.53;4987708;28;19929;-84
2022/03/08 12:07:56;;;;;;;;;;;;;;;0.55;79.26;99933.84;4973448;28;19925;-82
2022/03/08 12:10:26;;;;;;;;;;;;;;;0.58;79.24;99935.59;4972265;28;19926;-81
2022/03/08 12:12:55;;;;;;;;;;;;;;;0.56;79.26;99937.31;4971645;28;19926;-83
2022/03/08 12:15:21;;;;;;;;;;;;;;;0.53;79.20;99939.06;4972581;28;19934;-84
2022/03/08 12:18:04;;;;;;;;;;;;;;;0.50;79.16;99935.59;4973561;28;19929;-83
2022/03/08 12:20:30;;;;;;;;;;;;;;;0.86;78.98;99937.31;4971333;28;20058;-80
2022/03/08 12:23:15;;;;;;;;;;;;;;;3.00;73.47;99922.25;4973871;28;20373;-86
2022/03/08 12:25:40;;;;;;;;;;;;;;;1.59;76.96;99919.72;4970940;28;19992;-81
2022/03/08 12:28:07;;;;;;;;;;;;;;;1.17;78.86;99920.75;4972722;28;19918;-82
2022/03/08 12:30:39;;;;;;;;;;;;;;;1.00;79.50;99911.19;4971215;28;19930;-82
2022/03/08 12:33:05;;;;;;;;;;;;;;;0.87;80.00;99912.94;4971520;28;20021;-87
2022/03/08 12:35:30;;;;;;;;;;;;;;;0.83;80.24;99906.00;4973548;28;20113;-82
2022/03/08 12:38:01;;;;;;;;;;;;;;;0.82;80.16;99896.44;4971901;28;19969;-84
2022/03/08 12:40:35;;;;;;;;;;;;;;;0.77;80.10;99900.81;4971609;28;19941;-86
2022/03/08 12:43:00;;;;;;;;;;;;;;;0.74;80.01;99900.81;4972874;28;19949;-85
2022/03/08 12:45:25;;;;;;;;;;;;;;;0.64;80.15;99899.06;4972007;28;20377;-82
2022/03/08 12:47:50;;;;;;;;;;;;;;;0.61;80.32;99894.72;4972093;28;19980;-84
2022/03/08 12:50:17;;;;;;;;;;;;;;;0.83;82.08;99895.56;4972149;28;20373;-85
2022/03/08 12:52:44;;;;;;;;;;;;;;;1.25;85.71;99893.72;4971148;28;20100;-85
2022/03/08 12:55:11;;;;;;;;;;;;;;;1.43;88.45;99899.75;4971394;28;19926;-84
2022/03/08 12:57:45;;;;;;;;;;;;;;;1.56;90.10;99893.59;4970704;28;20433;-82
2022/03/08 13:00:11;;;;;;;;;;;;;;;1.65;91.65;99886.63;4973320;28;20452;-79
2022/03/08 13:02:36;;;;;;;;;;;;;;;1.83;93.89;99888.25;4971856;28;19972;-82
2022/03/08 13:05:04;;;;;;;;;;;;;;;2.06;95.61;99890.72;4971252;28;19922;-85
2022/03/08 13:07:29;;;;;;;;;;;;;;;2.22;97.20;99889.75;4987330;28;19926;-87
2022/03/08 13:09:56;;;;;;;;;;;;;;;2.39;99.01;99878.28;4971671;28;19926;-86
2022/03/08 13:12:26;;;;;;;;;;;;;;;2.51;100.00;99872.97;4970381;28;19922;-83
2022/03/08 13:15:07;;;;;;;;;;;;;;;2.64;100.00;99873.72;4971261;28;19929;-85
2022/03/08 13:17:32;;;;;;;;;;;;;;;2.81;100.00;99877.06;4972058;28;19969;-87
2022/03/08 13:19:58;;;;;;;;;;;;;;;2.87;100.00;99879.63;4972052;28;20004;-87
2022/03/08 13:22:23;;;;;;;;;;;;;;;2.98;100.00;99870.78;4972538;28;19923;-85
2022/03/08 13:25:08;;;;;;;;;;;;;;;3.04;100.00;99865.47;4969915;28;19933;-80
2022/03/08 13:27:51;;;;;;;;;;;;;;;3.07;100.00;99866.28;4971662;28;19922;-84
2022/03/08 13:30:21;;;;;;;;;;;;;;;3.24;100.00;99870.50;4971327;28;19989;-81
2022/03/08 13:32:47;;;;;;;;;;;;;;;3.29;100.00;99868.69;4972422;28;19922;-86
2022/03/08 13:35:12;;;;;;;;;;;;;;;3.39;100.00;99862.44;4971248;28;19922;-85
2022/03/08 13:37:45;;;;;;;;;;;;;;;3.45;100.00;99870.22;4971095;28;19933;-82
2022/03/08 13:40:23;;;;;;;;;;;;;;;3.51;100.00;99871.03;4968935;28;19926;-83
2022/03/08 13:42:48;;;;;;;;;;;;;;;3.56;100.00;99861.38;4971391;28;19922;-87
2022/03/08 13:45:14;;;;;;;;;;;;;;;3.57;100.00;99863.94;4987123;28;19922;-81
2022/03/08 13:47:39;;;;;;;;;;;;;;;3.66;100.00;99862.13;4972883;28;20405;-85
2022/03/08 13:50:04;;;;;;;;;;;;;;;3.69;100.00;99852.47;4972409;28;20349;-86
2022/03/08 13:52:30;;;;;;;;;;;;;;;3.76;100.00;99858.47;4970479;28;19926;-85
2022/03/08 13:54:55;;;;;;;;;;;;;;;3.79;100.00;99861.06;4972176;28;20389;-83
2022/03/08 13:57:20;;;;;;;;;;;;;;;3.79;100.00;99855.81;4969250;28;19932;-86
2022/03/08 13:59:46;;;;;;;;;;;;;;;3.87;100.00;99858.34;4971285;28;20005;-84
2022/03/08 14:02:15;;;;;;;;;;;;;;;3.91;100.00;99866.13;4971112;28;19965;-86
2022/03/08 14:04:41;;;;;;;;;;;;;;;3.94;100.00;99860.84;4986377;28;19926;-83
2022/03/08 14:07:06;;;;;;;;;;;;;;;3.96;100.00;99863.44;4970289;28;19926;-83
2022/03/08 14:09:32;;;;;;;;;;;;;;;4.00;100.00;99860.75;4970475;28;19926;-87
2022/03/08 14:12:01;;;;;;;;;;;;;;;4.08;100.00;99859.75;4984082;28;19929;-87
2022/03/08 14:14:28;;;;;;;;;;;;;;;4.13;100.00;99853.56;4970784;28;19922;-85
2022/03/08 14:16:54;;;;;;;;;;;;;;;4.13;100.00;99860.56;4972249;28;19973;-87
2022/03/08 14:19:20;;;;;;;;;;;;;;;4.19;100.00;99865.72;4971301;28;19918;-86
2022/03/08 14:21:47;;;;;;;;;;;;;;;4.21;100.00;99857.81;4970428;28;20005;-81
2022/03/08 14:24:17;;;;;;;;;;;;;;;4.23;100.00;99856.91;4972517;28;20270;-85
2022/03/08 14:26:57;;;;;;;;;;;;;;;4.10;100.00;99861.47;4967947;28;20017;-82
2022/03/08 14:29:23;;;;;;;;;;;;;;;3.26;100.00;99866.09;4970177;28;20809;-85
2022/03/08 14:31:49;;;;;;;;;;;;;;;2.84;100.00;99853.47;4972222;28;19918;-81
2022/03/08 14:34:17;;;;;;;;;;;;;;;2.62;99.02;99858.03;4971783;28;19973;-80
2022/03/08 14:36:44;;;;;;;;;;;;;;;2.54;96.92;99859.88;4973668;28;19925;-87
2022/03/08 14:39:15;;;;;;;;;;;;;;;2.41;95.28;99863.44;4972649;28;19985;-84
2022/03/08 14:41:50;;;;;;;;;;;;;;;2.33;93.88;99860.88;4974376;28;20806;-82
2022/03/08 14:44:15;;;;;;;;;;;;;;;2.20;92.77;99859.25;4988388;28;19918;-84
2022/03/08 14:46:40;;;;;;;;;;;;;;;2.16;91.47;99858.41;4975784;28;20276;-88
2022/03/08 14:49:06;;;;;;;;;;;;;;;2.06;90.53;99857.63;4974006;28;19957;-84
2022/03/08 14:51:31;;;;;;;;;;;;;;;1.99;89.57;99869.88;4975633;28;19925;-83
2022/03/08 14:53:57;;;;;;;;;;;;;;;1.95;88.65;99870.75;4975220;28;19922;-82
2022/03/08 14:56:22;;;;;;;;;;;;;;;1.81;87.29;99862.13;4972509;28;19944;-86
2022/03/08 14:58:47;;;;;;;;;;;;;;;1.79;86.32;99863.91;4973411;28;20022;-79
2022/03/08 15:01:13;;;;;;;;;;;;;;;1.73;85.70;99874.38;4974833;28;19922;-83
2022/03/08 15:03:38;;;;;;;;;;;;;;;1.75;85.16;99867.41;4973814;28;19922;-85
2022/03/08 15:06:03;;;;;;;;;;;;;;;1.59;84.49;99869.22;4973807;28;19926;-86
2022/03/08 15:08:29;;;;;;;;;;;;;;;1.65;84.20;99873.56;4975177;28;19964;-79
2022/03/08 15:10:54;;;;;;;;;;;;;;;1.55;83.99;99872.75;4973355;28;20000;-85
2022/03/08 15:13:20;;;;;;;;;;;;;;;1.50;83.60;99866.66;4974788;28;19933;-78
2022/03/08 15:15:45;;;;;;;;;;;;;;;1.45;83.38;99874.50;4974884;28;19922;-80
2022/03/08 15:18:10;;;;;;;;;;;;;;;1.40;83.25;99871.91;4974255;28;19968;-85
2022/03/08 15:20:36;;;;;;;;;;;;;;;1.46;83.06;99873.63;4972733;28;20301;-87
2022/03/08 15:23:01;;;;;;;;;;;;;;;1.35;82.99;99871.06;4973636;28;19914;-80
2022/03/08 15:25:26;;;;;;;;;;;;;;;1.41;82.82;99872.78;4972287;28;20017;-83
2022/03/08 15:27:53;;;;;;;;;;;;;;;1.33;82.57;99862.38;4971335;28;19925;-84
2022/03/08 15:30:19;;;;;;;;;;;;;;;1.29;82.53;99878.06;4973238;28;19922;-85
2022/03/08 15:32:45;;;;;;;;;;;;;;;1.26;82.34;99871.97;4972869;28;19976;-85
2022/03/08 15:35:10;;;;;;;;;;;;;;;1.22;82.33;99883.28;4974343;28;19918;-85
2022/03/08 15:37:35;;;;;;;;;;;;;;;1.21;82.40;99880.69;4973095;28;19930;-83
2022/03/08 15:40:01;;;;;;;;;;;;;;;1.32;82.49;99893.72;4969208;28;19923;-84
2022/03/08 15:42:26;;;;;;;;;;;;;;;1.24;82.32;99884.16;4968950;28;19961;-85
2022/03/08 15:44:51;;;;;;;;;;;;;;;1.19;81.98;99878.06;4969543;28;20433;-87
2022/03/08 15:47:16;;;;;;;;;;;;;;;1.11;81.84;99882.47;4972298;28;19980;-82
2022/03/08 15:49:42;;;;;;;;;;;;;;;1.10;81.85;99888.53;4972753;28;19926;-85
2022/03/08 15:52:07;;;;;;;;;;;;;;;1.14;81.85;99885.06;4974519;28;19954;-86
2022/03/08 15:54:32;;;;;;;;;;;;;;;1.06;81.61;99899.88;4972490;28;20381;-87
2022/03/08 15:56:58;;;;;;;;;;;;;;;1.05;81.79;99888.56;4971305;28;19922;-89
2022/03/08 15:59:23;;;;;;;;;;;;;;;1.05;81.80;99890.28;4972956;28;20277;-83
2022/03/08 16:01:48;;;;;;;;;;;;;;;1.09;81.79;99886.81;4969872;28;19948;-84
2022/03/08 16:04:14;;;;;;;;;;;;;;;1.00;81.61;99886.84;4970034;28;19926;-86
2022/03/08 16:06:41;;;;;;;;;;;;;;;0.99;81.65;99890.31;4971385;28;21479;-87
2022/03/08 16:09:06;;;;;;;;;;;;;;;0.95;81.60;99896.44;4972586;28;19926;-88
2022/03/08 16:11:32;;;;;;;;;;;;;;;0.93;81.56;99899.03;4970452;28;20358;-86
2022/03/08 16:13:57;;;;;;;;;;;;;;;1.01;81.43;99904.25;4971526;28;19926;-80
2022/03/08 16:16:22;;;;;;;;;;;;;;;0.88;81.52;99911.22;4972075;28;19930;-86
2022/03/08 16:18:48;;;;;;;;;;;;;;;0.89;81.43;99899.91;4972584;28;19922;-85
2022/03/08 16:21:15;;;;;;;;;;;;;;;0.96;81.28;99900.75;4973390;28;19965;-84
2022/03/08 16:23:40;;;;;;;;;;;;;;;0.92;81.02;99899.03;4971358;28;20376;-83
2022/03/08 16:26:05;;;;;;;;;;;;;;;0.85;80.96;99909.47;4970272;28;19922;-83
2022/03/08 16:28:31;;;;;;;;;;;;;;;0.84;80.97;99902.50;4972534;28;19926;-84
2022/03/08 16:30:56;;;;;;;;;;;;;;;0.82;80.94;99899.03;4970131;28;19922;-85
2022/03/08 16:33:21;;;;;;;;;;;;;;;0.77;81.02;99906.00;4968952;28;19953;-83
2022/03/08 16:35:47;;;;;;;;;;;;;;;0.79;81.17;99912.09;4971610;28;19972;-85
2022/03/08 16:38:12;;;;;;;;;;;;;;;0.78;81.38;99907.72;4971864;28;19929;-83
2022/03/08 16:40:38;;;;;;;;;;;;;;;0.81;81.34;99906.88;4986010;28;19965;-81
2022/03/08 16:43:03;;;;;;;;;;;;;;;0.81;81.19;99902.50;4972418;28;19941;-85
2022/03/08 16:45:29;;;;;;;;;;;;;;;0.73;80.89;99906.88;4972391;28;20331;-79
2022/03/08 16:47:54;;;;;;;;;;;;;;;0.73;80.95;99904.25;4972633;28;19918;-87
2022/03/08 16:50:20;;;;;;;;;;;;;;;0.73;80.76;99904.25;4972305;28;20041;-79
2022/03/08 16:52:45;;;;;;;;;;;;;;;0.70;80.75;99912.09;4970922;28;19988;-84
2022/03/08 16:55:11;;;;;;;;;;;;;;;0.68;80.91;99914.69;4970960;28;19925;-87
2022/03/08 16:57:37;;;;;;;;;;;;;;;0.66;80.85;99905.16;4971492;28;19926;-82
2022/03/08 17:00:03;;;;;;;;;;;;;;;0.63;80.67;99908.63;4971766;28;19922;-86
2022/03/08 17:02:29;;;;;;;;;;;;;;;0.70;80.71;99905.16;4973411;28;20396;-86
2022/03/08 17:04:54;;;;;;;;;;;;;;;0.64;80.55;99905.16;4972963;28;19950;-84
2022/03/08 17:07:20;;;;;;;;;;;;;;;0.59;80.74;99913.84;4973278;28;19930;-79
2022/03/08 17:09:45;;;;;;;;;;;;;;;0.62;80.50;99919.91;4973389;28;19922;-83
2022/03/08 17:12:10;;;;;;;;;;;;;;;0.62;80.29;99926.88;4970764;28;19957;-84
2022/03/08 17:14:36;;;;;;;;;;;;;;;0.58;80.26;99930.38;4971870;28;19922;-83
2022/03/08 17:17:01;;;;;;;;;;;;;;;0.60;80.15;99933.84;4971912;28;19925;-79
2022/03/08 17:19:26;;;;;;;;;;;;;;;0.61;80.27;99936.44;4971779;28;19950;-84
2022/03/08 17:21:51;;;;;;;;;;;;;;;0.54;79.98;99938.19;4971864;28;19926;-78
2022/03/08 17:24:17;;;;;;;;;;;;;;;0.56;80.19;99939.91;4973090;28;19926;-78
2022/03/08 17:26:42;;;;;;;;;;;;;;;0.52;80.16;99942.53;4972016;28;19928;-80
2022/03/08 17:29:07;;;;;;;;;;;;;;;0.55;80.03;99952.09;4972932;28;20361;-79
2022/03/08 17:31:32;;;;;;;;;;;;;;;0.50;79.90;99953.84;4972957;28;20016;-80
2022/03/08 17:33:59;;;;;;;;;;;;;;;0.50;79.92;99957.31;4972968;28;20017;-79
2022/03/08 17:36:25;;;;;;;;;;;;;;;0.48;79.90;99958.16;4970782;28;19924;-80
2022/03/08 17:38:50;;;;;;;;;;;;;;;0.47;79.96;99962.50;4972781;28;19918;-84
2022/03/08 17:41:16;;;;;;;;;;;;;;;0.44;79.77;99961.66;4971481;28;19925;-80
2022/03/08 17:43:41;;;;;;;;;;;;;;;0.46;79.86;99952.97;4972697;28;19964;-78
2022/03/08 17:46:07;;;;;;;;;;;;;;;0.44;79.49;99949.47;4972861;28;20465;-83
2022/03/08 17:48:33;;;;;;;;;;;;;;;0.43;79.66;99952.06;4971243;28;19929;-78
2022/03/08 17:50:58;;;;;;;;;;;;;;;0.37;79.57;99952.97;4971577;28;20393;-85
2022/03/08 17:53:23;;;;;;;;;;;;;;;0.38;79.70;99962.50;4972415;28;19969;-87
2022/03/08 17:55:48;;;;;;;;;;;;;;;0.34;79.65;99968.59;4970397;28;20369;-83
2022/03/08 17:58:14;;;;;;;;;;;;;;;0.39;79.50;99977.28;4972554;28;20393;-87
2022/03/08 18:00:39;;;;;;;;;;;;;;;0.36;79.41;99967.72;4972793;28;19922;-86
2022/03/08 18:03:05;;;;;;;;;;;;;;;0.32;79.49;99970.31;4971550;28;19919;-88
2022/03/08 18:05:30;;;;;;;;;;;;;;;0.32;79.45;99976.41;4971666;28;19922;-84
2022/03/08 18:07:55;;;;;;;;;;;;;;;0.34;79.40;99973.81;4972770;28;19918;-84
2022/03/08 18:10:21;;;;;;;;;;;;;;;0.33;79.12;99982.47;4972279;28;20382;-87
2022/03/08 18:12:46;;;;;;;;;;;;;;;0.41;79.17;99985.09;4975211;28;19956;-83
2022/03/08 18:15:12;;;;;;;;;;;;;;;0.30;79.13;99974.66;4976177;28;19922;-86
2022/03/08 18:17:37;;;;;;;;;;;;;;;0.32;78.96;99980.72;4975474;28;19918;-86
2022/03/08 18:20:03;;;;;;;;;;;;;;;0.37;78.95;99979.03;4976432;28;19925;-84
2022/03/08 18:22:28;;;;;;;;;;;;;;;0.29;78.64;99972.94;4974951;28;19918;-82
2022/03/08 18:24:53;;;;;;;;;;;;;;;0.28;78.64;99976.41;4976243;28;19918;-88
2022/03/08 18:27:19;;;;;;;;;;;;;;;0.33;78.59;99977.25;4975106;28;19996;-84
2022/03/08 18:29:45;;;;;;;;;;;;;;;0.30;78.64;99982.47;4975863;28;19918;-88
2022/03/08 18:32:10;;;;;;;;;;;;;;;0.27;78.34;99992.88;4974861;28;19928;-84
2022/03/08 18:34:35;;;;;;;;;;;;;;;0.23;78.42;99992.03;4975968;28;20425;-86
2022/03/08 18:37:01;;;;;;;;;;;;;;;0.21;78.23;99983.34;4974882;28;19922;-83
2022/03/08 18:39:26;;;;;;;;;;;;;;;0.21;78.35;99987.66;4975357;28;20402;-84
2022/03/08 18:41:52;;;;;;;;;;;;;;;0.24;78.33;99987.66;4974626;28;20368;-86
2022/03/08 18:44:17;;;;;;;;;;;;;;;0.23;78.07;99988.56;4975419;28;19929;-89
2022/03/08 18:46:42;;;;;;;;;;;;;;;0.20;78.03;99986.78;4974567;28;19925;-86
2022/03/08 18:49:08;;;;;;;;;;;;;;;0.21;77.82;99985.06;4975755;28;19918;-90
2022/03/08 18:51:33;;;;;;;;;;;;;;;0.23;77.71;99989.41;4974292;28;20009;-84
2022/03/08 18:53:59;;;;;;;;;;;;;;;0.21;77.60;99988.56;4974346;28;19964;-89
2022/03/08 18:56:24;;;;;;;;;;;;;;;0.20;77.82;99985.94;4974121;28;20793;-80
2022/03/08 18:58:50;;;;;;;;;;;;;;;0.15;77.50;99989.38;4974469;28;19925;-84
2022/03/08 19:01:16;;;;;;;;;;;;;;;0.19;77.41;99990.25;4975478;28;19922;-86
2022/03/08 19:03:41;;;;;;;;;;;;;;;0.17;77.30;99989.38;4974276;28;19918;-87
2022/03/08 19:06:07;;;;;;;;;;;;;;;0.21;77.35;99996.38;4975403;28;20000;-87
2022/03/08 19:08:32;;;;;;;;;;;;;;;0.17;77.39;99995.47;4974106;28;19928;-83
2022/03/08 19:10:57;;;;;;;;;;;;;;;0.16;77.35;99995.47;4974240;28;19922;-88
2022/03/08 19:13:23;;;;;;;;;;;;;;;0.17;77.29;99997.22;4974965;28;19929;-82
2022/03/08 19:15:48;;;;;;;;;;;;;;;0.15;77.20;99998.94;4975131;28;19925;-80
2022/03/08 19:18:13;;;;;;;;;;;;;;;0.19;77.22;100000.69;4975174;28;19922;-86
2022/03/08 19:20:39;;;;;;;;;;;;;;;0.18;77.08;99994.59;4973711;28;19919;-81
2022/03/08 19:23:04;;;;;;;;;;;;;;;0.13;77.03;99998.94;4974490;28;20332;-87
2022/03/08 19:25:30;;;;;;;;;;;;;;;0.17;76.85;99992.84;4973642;28;19994;-87
2022/03/08 19:27:55;;;;;;;;;;;;;;;0.18;77.14;99992.00;4975097;28;19921;-86
2022/03/08 19:30:20;;;;;;;;;;;;;;;0.20;76.74;100001.56;4973449;28;20273;-86
2022/03/08 19:32:47;;;;;;;;;;;;;;;0.17;76.78;99998.06;4973793;28;19919;-85
2022/03/08 19:35:12;;;;;;;;;;;;;;;0.14;76.72;100000.69;4974736;28;20423;-81
2022/03/08 19:37:38;;;;;;;;;;;;;;;0.18;76.68;100005.03;4973432;28;19970;-84
2022/03/08 19:40:03;;;;;;;;;;;;;;;0.20;76.79;100006.78;4972780;28;20366;-80
2022/03/08 19:42:29;;;;;;;;;;;;;;;0.15;76.57;100004.16;4974219;28;20337;-83
2022/03/08 19:44:54;;;;;;;;;;;;;;;0.14;76.49;100003.31;4973358;28;19918;-82
2022/03/08 19:47:19;;;;;;;;;;;;;;;0.25;76.24;100010.28;4973221;28;19922;-83
2022/03/08 19:49:45;;;;;;;;;;;;;;;0.23;76.29;100017.22;4974841;28;19922;-88
2022/03/08 19:52:11;;;;;;;;;;;;;;;0.15;76.29;100017.19;4974444;28;19982;-88